Dalton, New Hampshire
Current Conditions -  °F | °C
As of 4:34 PM on Wednesday 26 Nov 2014 (Local Time) from KHIE Reporting Station
Light Snow Light Snow  
Wind Chill: 31°   Ceiling: 900
Heat Index: 31°   Visibility: 1mi
Dew Point: 28°   Wind: 3mph
Humidity: 89%   Direction: 20°NNE
Pressure: 30.02"   Gusts: NA
Location:  44.3374°N, 71.528°W
Report Text: KHIE 262134Z AUTO 02003KT 1SM -SN BR OVC009 M01/M02 A3002 RMK AO2 P0003 T10061022
Loading
Personal Weather Stations






























Interactive Weather Map New forecast layout! Learn more

10-Day Weather Forecast

Advertisements
Track Severe Weather on mobile